sensor_id;sensor_type;location;lat;lon;timestamp;pressure;altitude;pressure_sealevel;temperature;humidity
28665;BME280;15850;47.524;7.814;2023-09-18T00:01:30;97179.59;;;19.14;100.00
28665;BME280;15850;47.524;7.814;2023-09-18T00:03:55;97160.38;;;19.04;100.00
28665;BME280;15850;47.524;7.814;2023-09-18T00:06:21;97143.53;;;18.94;100.00
28665;BME280;15850;47.524;7.814;2023-09-18T00:08:48;96988.28;;;18.04;100.00
28665;BME280;15850;47.524;7.814;2023-09-18T00:11:13;96805.09;;;16.81;100.00
28665;BME280;15850;47.524;7.814;2023-09-18T00:13:39;97061.63;;;18.39;100.00
28665;BME280;15850;47.524;7.814;2023-09-18T00:16:04;97106.47;;;18.36;100.00
28665;BME280;15850;47.524;7.814;2023-09-18T00:18:30;97159.34;;;18.83;100.00
28665;BME280;15850;47.524;7.814;2023-09-18T00:20:55;97165.59;;;18.91;100.00
28665;BME280;15850;47.524;7.814;2023-09-18T00:23:21;96952.00;;;17.53;100.00
28665;BME280;15850;47.524;7.814;2023-09-18T00:25:47;97164.44;;;18.88;100.00
28665;BME280;15850;47.524;7.814;2023-09-18T00:28:13;97140.06;;;18.80;100.00
28665;BME280;15850;47.524;7.814;2023-09-18T00:30:42;97144.59;;;18.45;100.00
28665;BME280;15850;47.524;7.814;2023-09-18T00:33:08;97212.16;;;18.71;100.00
28665;BME280;15850;47.524;7.814;2023-09-18T00:35:33;97128.56;;;18.25;100.00
28665;BME280;15850;47.524;7.814;2023-09-18T00:37:59;97195.16;;;18.83;100.00
28665;BME280;15850;47.524;7.814;2023-09-18T00:40:24;97204.63;;;18.82;100.00
28665;BME280;15850;47.524;7.814;2023-09-18T00:42:51;96934.50;;;17.08;100.00
28665;BME280;15850;47.524;7.814;2023-09-18T00:45:17;97179.53;;;18.62;100.00
28665;BME280;15850;47.524;7.814;2023-09-18T00:47:42;97131.38;;;18.18;100.00
28665;BME280;15850;47.524;7.814;2023-09-18T00:50:10;96867.13;;;16.57;100.00
28665;BME280;15850;47.524;7.814;2023-09-18T00:52:37;97104.25;;;18.10;100.00
28665;BME280;15850;47.524;7.814;2023-09-18T00:55:04;97220.34;;;18.85;100.00
28665;BME280;15850;47.524;7.814;2023-09-18T00:57:31;97218.78;;;18.81;100.00
28665;BME280;15850;47.524;7.814;2023-09-18T00:59:58;96873.03;;;16.52;100.00
28665;BME280;15850;47.524;7.814;2023-09-18T01:02:23;97227.44;;;18.86;100.00
28665;BME280;15850;47.524;7.814;2023-09-18T01:04:49;97219.91;;;18.90;100.00
28665;BME280;15850;47.524;7.814;2023-09-18T01:07:15;97084.16;;;18.16;100.00
28665;BME280;15850;47.524;7.814;2023-09-18T01:09:41;97201.44;;;18.87;100.00
28665;BME280;15850;47.524;7.814;2023-09-18T01:12:11;97218.78;;;18.84;100.00
28665;BME280;15850;47.524;7.814;2023-09-18T01:14:46;97215.25;;;18.80;100.00
28665;BME280;15850;47.524;7.814;2023-09-18T01:17:16;97209.75;;;18.80;100.00
28665;BME280;15850;47.524;7.814;2023-09-18T01:19:42;97216.53;;;18.54;100.00
28665;BME280;15850;47.524;7.814;2023-09-18T01:22:09;96899.72;;;16.12;100.00
28665;BME280;15850;47.524;7.814;2023-09-18T01:24:37;97241.09;;;18.16;100.00
28665;BME280;15850;47.524;7.814;2023-09-18T01:27:04;96793.47;;;15.19;100.00
28665;BME280;15850;47.524;7.814;2023-09-18T01:29:30;97235.19;;;18.21;100.00
28665;BME280;15850;47.524;7.814;2023-09-18T01:31:55;97127.22;;;17.53;100.00
28665;BME280;15850;47.524;7.814;2023-09-18T01:34:25;97221.41;;;18.18;100.00
28665;BME280;15850;47.524;7.814;2023-09-18T01:36:52;97225.34;;;18.17;100.00
28665;BME280;15850;47.524;7.814;2023-09-18T01:39:19;97202.63;;;17.98;100.00
28665;BME280;15850;47.524;7.814;2023-09-18T01:41:47;97218.31;;;18.08;100.00
28665;BME280;15850;47.524;7.814;2023-09-18T01:44:13;97253.28;;;18.22;100.00
28665;BME280;15850;47.524;7.814;2023-09-18T01:46:39;97229.56;;;18.46;100.00
28665;BME280;15850;47.524;7.814;2023-09-18T01:49:06;97233.47;;;18.56;100.00
28665;BME280;15850;47.524;7.814;2023-09-18T01:51:31;97155.41;;;18.03;100.00
28665;BME280;15850;47.524;7.814;2023-09-18T01:53:57;97176.56;;;18.21;100.00
28665;BME280;15850;47.524;7.814;2023-09-18T01:56:23;97239.81;;;18.42;100.00
28665;BME280;15850;47.524;7.814;2023-09-18T01:58:50;97195.44;;;18.26;100.00
28665;BME280;15850;47.524;7.814;2023-09-18T02:01:16;97142.22;;;17.05;100.00
28665;BME280;15850;47.524;7.814;2023-09-18T02:03:41;97287.13;;;17.91;100.00
28665;BME280;15850;47.524;7.814;2023-09-18T02:06:07;97341.75;;;18.21;100.00
28665;BME280;15850;47.524;7.814;2023-09-18T02:08:32;97288.34;;;17.86;100.00
28665;BME280;15850;47.524;7.814;2023-09-18T02:10:58;97298.13;;;17.94;100.00
28665;BME280;15850;47.524;7.814;2023-09-18T02:13:24;97344.50;;;18.31;100.00
28665;BME280;15850;47.524;7.814;2023-09-18T02:15:50;97406.25;;;18.52;100.00
28665;BME280;15850;47.524;7.814;2023-09-18T02:18:16;97434.16;;;18.65;100.00
28665;BME280;15850;47.524;7.814;2023-09-18T02:20:42;97444.38;;;18.61;100.00
28665;BME280;15850;47.524;7.814;2023-09-18T02:23:07;97439.28;;;18.59;100.00
28665;BME280;15850;47.524;7.814;2023-09-18T02:25:33;97410.19;;;18.54;100.00
28665;BME280;15850;47.524;7.814;2023-09-18T02:27:59;97179.09;;;16.90;100.00
28665;BME280;15850;47.524;7.814;2023-09-18T02:30:24;97453.03;;;18.70;100.00
28665;BME280;15850;47.524;7.814;2023-09-18T02:32:51;97458.97;;;18.68;100.00
28665;BME280;15850;47.524;7.814;2023-09-18T02:35:17;97442.44;;;18.72;100.00
28665;BME280;15850;47.524;7.814;2023-09-18T02:37:42;97364.94;;;18.34;100.00
28665;BME280;15850;47.524;7.814;2023-09-18T02:40:09;97388.13;;;18.58;100.00
28665;BME280;15850;47.524;7.814;2023-09-18T02:42:34;97298.56;;;17.82;100.00
28665;BME280;15850;47.524;7.814;2023-09-18T02:45:00;97399.16;;;18.58;100.00
28665;BME280;15850;47.524;7.814;2023-09-18T02:47:25;97409.38;;;18.50;100.00
28665;BME280;15850;47.524;7.814;2023-09-18T02:49:52;97402.69;;;18.62;100.00
28665;BME280;15850;47.524;7.814;2023-09-18T02:52:18;97365.75;;;18.27;100.00
28665;BME280;15850;47.524;7.814;2023-09-18T02:54:43;97420.03;;;18.45;100.00
28665;BME280;15850;47.524;7.814;2023-09-18T02:57:09;97421.59;;;18.42;100.00
28665;BME280;15850;47.524;7.814;2023-09-18T02:59:34;97411.00;;;18.44;100.00
28665;BME280;15850;47.524;7.814;2023-09-18T03:02:00;97393.66;;;18.33;100.00
28665;BME280;15850;47.524;7.814;2023-09-18T03:04:25;97401.91;;;18.47;100.00
28665;BME280;15850;47.524;7.814;2023-09-18T03:06:52;97387.34;;;18.50;100.00
28665;BME280;15850;47.524;7.814;2023-09-18T03:09:18;97237.25;;;17.49;100.00
28665;BME280;15850;47.524;7.814;2023-09-18T03:11:43;97358.69;;;18.23;100.00
28665;BME280;15850;47.524;7.814;2023-09-18T03:14:09;97351.59;;;18.11;100.00
28665;BME280;15850;47.524;7.814;2023-09-18T03:16:35;97291.06;;;17.68;100.00
28665;BME280;15850;47.524;7.814;2023-09-18T03:19:01;97287.13;;;17.37;100.00
28665;BME280;15850;47.524;7.814;2023-09-18T03:21:27;97337.81;;;17.61;100.00
28665;BME280;15850;47.524;7.814;2023-09-18T03:23:53;97334.69;;;17.55;100.00
28665;BME280;15850;47.524;7.814;2023-09-18T03:26:19;97332.31;;;17.57;100.00
28665;BME280;15850;47.524;7.814;2023-09-18T03:28:45;97331.53;;;17.60;100.00
28665;BME280;15850;47.524;7.814;2023-09-18T03:31:10;97309.94;;;17.70;100.00
28665;BME280;15850;47.524;7.814;2023-09-18T03:33:36;97002.22;;;15.43;100.00
28665;BME280;15850;47.524;7.814;2023-09-18T03:36:02;97155.47;;;16.64;100.00
28665;BME280;15850;47.524;7.814;2023-09-18T03:38:31;97131.94;;;16.59;100.00
28665;BME280;15850;47.524;7.814;2023-09-18T03:41:00;97280.03;;;17.65;100.00
28665;BME280;15850;47.524;7.814;2023-09-18T03:43:26;97297.75;;;18.06;100.00
28665;BME280;15850;47.524;7.814;2023-09-18T03:45:51;97293.00;;;18.07;100.00
28665;BME280;15850;47.524;7.814;2023-09-18T03:48:18;97308.00;;;17.95;100.00
28665;BME280;15850;47.524;7.814;2023-09-18T03:50:44;97315.84;;;17.79;100.00
28665;BME280;15850;47.524;7.814;2023-09-18T03:53:09;97084.03;;;16.32;100.00
28665;BME280;15850;47.524;7.814;2023-09-18T03:55:35;97327.25;;;17.88;100.00
28665;BME280;15850;47.524;7.814;2023-09-18T03:58:02;97210.13;;;17.37;100.00
28665;BME280;15850;47.524;7.814;2023-09-18T04:00:28;97299.69;;;18.13;100.00
28665;BME280;15850;47.524;7.814;2023-09-18T04:02:53;97276.50;;;18.03;100.00
28665;BME280;15850;47.524;7.814;2023-09-18T04:05:19;96924.44;;;16.01;100.00
28665;BME280;15850;47.524;7.814;2023-09-18T04:07:44;97257.56;;;18.27;100.00
28665;BME280;15850;47.524;7.814;2023-09-18T04:10:10;97157.91;;;17.30;100.00
28665;BME280;15850;47.524;7.814;2023-09-18T04:12:35;97153.59;;;17.25;100.00
28665;BME280;15850;47.524;7.814;2023-09-18T04:15:03;97271.81;;;17.93;100.00
28665;BME280;15850;47.524;7.814;2023-09-18T04:17:29;97187.34;;;17.44;100.00
28665;BME280;15850;47.524;7.814;2023-09-18T04:19:54;97296.94;;;17.74;100.00
28665;BME280;15850;47.524;7.814;2023-09-18T04:22:20;97179.88;;;17.08;100.00
28665;BME280;15850;47.524;7.814;2023-09-18T04:24:46;97247.44;;;17.56;100.00
28665;BME280;15850;47.524;7.814;2023-09-18T04:27:12;97073.84;;;16.36;100.00
28665;BME280;15850;47.524;7.814;2023-09-18T04:29:37;97184.59;;;17.04;100.00
28665;BME280;15850;47.524;7.814;2023-09-18T04:32:06;96935.63;;;15.32;100.00
28665;BME280;15850;47.524;7.814;2023-09-18T04:34:32;97132.72;;;16.56;100.00
28665;BME280;15850;47.524;7.814;2023-09-18T04:36:57;97314.25;;;17.67;100.00
28665;BME280;15850;47.524;7.814;2023-09-18T04:39:23;97285.94;;;17.74;100.00
28665;BME280;15850;47.524;7.814;2023-09-18T04:41:48;97223.09;;;17.40;100.00
28665;BME280;15850;47.524;7.814;2023-09-18T04:44:14;96965.13;;;15.67;100.00
28665;BME280;15850;47.524;7.814;2023-09-18T04:46:40;97136.66;;;16.70;100.00
28665;BME280;15850;47.524;7.814;2023-09-18T04:49:07;97184.59;;;16.97;100.00
28665;BME280;15850;47.524;7.814;2023-09-18T04:51:32;96979.50;;;15.39;100.00
28665;BME280;15850;47.524;7.814;2023-09-18T04:53:58;97305.63;;;17.69;100.00
28665;BME280;15850;47.524;7.814;2023-09-18T04:56:24;97305.59;;;17.76;100.00
28665;BME280;15850;47.524;7.814;2023-09-18T04:58:49;97174.78;;;16.93;100.00
28665;BME280;15850;47.524;7.814;2023-09-18T05:01:15;97301.69;;;17.77;100.00
28665;BME280;15850;47.524;7.814;2023-09-18T05:03:40;97055.34;;;16.11;100.00
28665;BME280;15850;47.524;7.814;2023-09-18T05:06:08;96930.13;;;15.32;100.00
28665;BME280;15850;47.524;7.814;2023-09-18T05:08:33;97296.19;;;17.77;100.00
28665;BME280;15850;47.524;7.814;2023-09-18T05:10:59;96973.28;;;15.52;100.00
28665;BME280;15850;47.524;7.814;2023-09-18T05:13:24;96948.91;;;15.30;100.00
28665;BME280;15850;47.524;7.814;2023-09-18T05:15:50;97346.47;;;17.67;100.00
28665;BME280;15850;47.524;7.814;2023-09-18T05:18:15;96865.88;;;14.31;100.00
28665;BME280;15850;47.524;7.814;2023-09-18T05:20:41;97332.75;;;17.77;100.00
28665;BME280;15850;47.524;7.814;2023-09-18T05:23:08;97344.13;;;17.76;100.00
28665;BME280;15850;47.524;7.814;2023-09-18T05:25:34;97262.38;;;17.23;100.00
28665;BME280;15850;47.524;7.814;2023-09-18T05:28:00;97343.72;;;17.59;100.00
28665;BME280;15850;47.524;7.814;2023-09-18T05:30:27;97300.06;;;17.26;100.00
28665;BME280;15850;47.524;7.814;2023-09-18T05:32:53;96765.53;;;13.87;100.00
28665;BME280;15850;47.524;7.814;2023-09-18T05:35:18;96867.69;;;14.75;100.00
28665;BME280;15850;47.524;7.814;2023-09-18T05:37:44;97329.97;;;17.59;100.00
28665;BME280;15850;47.524;7.814;2023-09-18T05:40:12;96716.44;;;13.43;100.00
28665;BME280;15850;47.524;7.814;2023-09-18T05:42:38;97333.88;;;17.48;100.00
28665;BME280;15850;47.524;7.814;2023-09-18T05:45:05;97348.81;;;17.50;100.00
28665;BME280;15850;47.524;7.814;2023-09-18T05:47:31;97355.09;;;17.58;100.00
28665;BME280;15850;47.524;7.814;2023-09-18T05:49:57;97368.47;;;17.59;100.00
28665;BME280;15850;47.524;7.814;2023-09-18T05:52:34;97002.13;;;15.21;100.00
28665;BME280;15850;47.524;7.814;2023-09-18T05:55:13;96946.09;;;15.08;100.00
28665;BME280;15850;47.524;7.814;2023-09-18T05:57:39;96837.38;;;14.43;100.00
28665;BME280;15850;47.524;7.814;2023-09-18T06:00:06;97112.16;;;15.96;100.00
28665;BME280;15850;47.524;7.814;2023-09-18T06:02:38;97300.00;;;16.94;100.00
28665;BME280;15850;47.524;7.814;2023-09-18T06:05:04;97132.47;;;15.85;100.00
28665;BME280;15850;47.524;7.814;2023-09-18T06:07:30;97120.31;;;15.82;100.00
28665;BME280;15850;47.524;7.814;2023-09-18T06:09:56;97386.53;;;17.64;100.00
28665;BME280;15850;47.524;7.814;2023-09-18T06:12:23;97163.28;;;16.55;100.00
28665;BME280;15850;47.524;7.814;2023-09-18T06:14:49;97345.31;;;17.75;100.00
28665;BME280;15850;47.524;7.814;2023-09-18T06:17:15;96986.44;;;15.15;100.00
28665;BME280;15850;47.524;7.814;2023-09-18T06:19:40;97370.81;;;17.61;100.00
28665;BME280;15850;47.524;7.814;2023-09-18T06:22:06;97230.03;;;16.66;100.00
28665;BME280;15850;47.524;7.814;2023-09-18T06:24:31;97370.44;;;17.59;100.00
28665;BME280;15850;47.524;7.814;2023-09-18T06:26:57;97384.56;;;17.65;100.00
28665;BME280;15850;47.524;7.814;2023-09-18T06:29:24;97375.50;;;17.39;100.00
28665;BME280;15850;47.524;7.814;2023-09-18T06:31:50;97376.72;;;17.45;100.00
28665;BME280;15850;47.524;7.814;2023-09-18T06:34:15;96754.72;;;13.46;100.00
28665;BME280;15850;47.524;7.814;2023-09-18T06:36:41;97405.44;;;17.66;100.00
28665;BME280;15850;47.524;7.814;2023-09-18T06:39:06;97340.09;;;17.12;100.00
28665;BME280;15850;47.524;7.814;2023-09-18T06:41:32;97292.81;;;16.67;100.00
28665;BME280;15850;47.524;7.814;2023-09-18T06:43:57;97332.06;;;16.72;100.00
28665;BME280;15850;47.524;7.814;2023-09-18T06:46:24;97295.03;;;16.37;100.00
28665;BME280;15850;47.524;7.814;2023-09-18T06:48:50;97388.34;;;16.99;100.00
28665;BME280;15850;47.524;7.814;2023-09-18T06:51:15;97335.00;;;16.34;100.00
28665;BME280;15850;47.524;7.814;2023-09-18T06:53:41;97372.25;;;17.01;100.00
28665;BME280;15850;47.524;7.814;2023-09-18T06:56:06;97439.22;;;17.70;100.00
28665;BME280;15850;47.524;7.814;2023-09-18T06:58:32;97383.69;;;17.25;100.00
28665;BME280;15850;47.524;7.814;2023-09-18T07:00:57;97370.78;;;17.29;100.00
28665;BME280;15850;47.524;7.814;2023-09-18T07:03:24;97009.03;;;14.94;100.00
28665;BME280;15850;47.524;7.814;2023-09-18T07:05:50;97273.44;;;16.39;100.00
28665;BME280;15850;47.524;7.814;2023-09-18T07:08:15;97183.84;;;15.88;100.00
28665;BME280;15850;47.524;7.814;2023-09-18T07:10:41;97460.78;;;17.53;100.00
28665;BME280;15850;47.524;7.814;2023-09-18T07:13:07;97467.09;;;17.57;100.00
28665;BME280;15850;47.524;7.814;2023-09-18T07:15:32;97425.78;;;17.36;100.00
28665;BME280;15850;47.524;7.814;2023-09-18T07:17:58;97434.50;;;17.56;100.00
28665;BME280;15850;47.524;7.814;2023-09-18T07:20:25;97167.84;;;16.04;100.00
28665;BME280;15850;47.524;7.814;2023-09-18T07:22:50;97396.41;;;17.69;100.00
28665;BME280;15850;47.524;7.814;2023-09-18T07:25:16;97380.31;;;17.89;100.00
28665;BME280;15850;47.524;7.814;2023-09-18T07:27:42;97403.13;;;17.82;100.00
28665;BME280;15850;47.524;7.814;2023-09-18T07:30:08;97414.47;;;17.63;100.00
28665;BME280;15850;47.524;7.814;2023-09-18T07:32:33;97426.66;;;17.69;100.00
28665;BME280;15850;47.524;7.814;2023-09-18T07:34:59;97410.59;;;17.85;100.00
28665;BME280;15850;47.524;7.814;2023-09-18T07:37:27;97425.94;;;17.97;100.00
28665;BME280;15850;47.524;7.814;2023-09-18T07:40:04;97396.06;;;18.02;100.00
28665;BME280;15850;47.524;7.814;2023-09-18T07:42:29;96625.56;;;13.01;100.00
28665;BME280;15850;47.524;7.814;2023-09-18T07:44:58;97068.97;;;15.76;100.00
28665;BME280;15850;47.524;7.814;2023-09-18T07:47:23;96935.50;;;15.03;100.00
28665;BME280;15850;47.524;7.814;2023-09-18T07:49:49;97156.25;;;16.64;100.00
28665;BME280;15850;47.524;7.814;2023-09-18T07:52:14;97309.13;;;17.48;100.00
28665;BME280;15850;47.524;7.814;2023-09-18T07:54:41;96965.41;;;15.37;100.00
28665;BME280;15850;47.524;7.814;2023-09-18T07:57:07;97434.19;;;18.36;100.00
28665;BME280;15850;47.524;7.814;2023-09-18T07:59:32;97448.75;;;18.33;100.00
28665;BME280;15850;47.524;7.814;2023-09-18T08:01:58;97422.38;;;18.03;100.00
28665;BME280;15850;47.524;7.814;2023-09-18T08:04:23;97443.25;;;18.26;100.00
28665;BME280;15850;47.524;7.814;2023-09-18T08:06:49;97309.09;;;17.33;100.00
28665;BME280;15850;47.524;7.814;2023-09-18T08:09:14;97042.19;;;15.47;100.00
28665;BME280;15850;47.524;7.814;2023-09-18T08:11:42;97167.22;;;16.57;100.00
28665;BME280;15850;47.524;7.814;2023-09-18T08:14:07;97306.75;;;17.32;100.00
28665;BME280;15850;47.524;7.814;2023-09-18T08:16:33;97268.56;;;16.87;100.00
28665;BME280;15850;47.524;7.814;2023-09-18T08:19:00;97450.28;;;17.91;100.00
28665;BME280;15850;47.524;7.814;2023-09-18T08:21:26;97000.50;;;15.10;100.00
28665;BME280;15850;47.524;7.814;2023-09-18T08:23:51;97484.94;;;18.17;100.00
28665;BME280;15850;47.524;7.814;2023-09-18T08:26:17;97438.03;;;17.64;100.00
28665;BME280;15850;47.524;7.814;2023-09-18T08:28:44;97137.91;;;15.70;100.00
28665;BME280;15850;47.524;7.814;2023-09-18T08:31:11;97513.63;;;18.02;100.00
28665;BME280;15850;47.524;7.814;2023-09-18T08:33:37;96738.41;;;13.12;100.00
28665;BME280;15850;47.524;7.814;2023-09-18T08:36:03;97094.78;;;15.67;100.00
28665;BME280;15850;47.524;7.814;2023-09-18T08:38:29;97138.41;;;15.94;100.00
28665;BME280;15850;47.524;7.814;2023-09-18T08:40:57;96682.09;;;12.56;100.00
28665;BME280;15850;47.524;7.814;2023-09-18T08:43:26;96966.38;;;14.38;100.00
28665;BME280;15850;47.524;7.814;2023-09-18T08:45:55;96977.72;;;14.95;100.00
28665;BME280;15850;47.524;7.814;2023-09-18T08:48:21;97226.84;;;16.46;100.00
28665;BME280;15850;47.524;7.814;2023-09-18T08:50:48;97008.75;;;15.13;100.00
28665;BME280;15850;47.524;7.814;2023-09-18T08:53:13;97457.41;;;17.99;100.00
28665;BME280;15850;47.524;7.814;2023-09-18T08:55:39;97446.72;;;17.73;100.00
28665;BME280;15850;47.524;7.814;2023-09-18T08:58:06;97447.53;;;17.77;100.00
28665;BME280;15850;47.524;7.814;2023-09-18T09:00:31;97416.47;;;17.83;100.00
28665;BME280;15850;47.524;7.814;2023-09-18T09:02:58;97363.69;;;17.31;100.00
28665;BME280;15850;47.524;7.814;2023-09-18T09:05:24;97316.50;;;16.97;100.00
28665;BME280;15850;47.524;7.814;2023-09-18T09:07:50;97408.97;;;17.63;100.00
28665;BME280;15850;47.524;7.814;2023-09-18T09:10:16;97248.88;;;16.71;100.00
28665;BME280;15850;47.524;7.814;2023-09-18T09:12:55;97072.66;;;15.35;100.00
28665;BME280;15850;47.524;7.814;2023-09-18T09:15:22;97399.53;;;17.64;100.00
28665;BME280;15850;47.524;7.814;2023-09-18T09:17:49;97388.13;;;17.61;100.00
28665;BME280;15850;47.524;7.814;2023-09-18T09:20:16;97439.69;;;18.04;100.00
28665;BME280;15850;47.524;7.814;2023-09-18T09:22:42;97406.19;;;17.55;100.00
28665;BME280;15850;47.524;7.814;2023-09-18T09:25:27;97435.38;;;17.92;100.00
28665;BME280;15850;47.524;7.814;2023-09-18T09:27:53;97406.69;;;18.15;100.00
28665;BME280;15850;47.524;7.814;2023-09-18T09:30:20;97370.09;;;18.11;100.00
28665;BME280;15850;47.524;7.814;2023-09-18T09:32:48;97385.41;;;18.33;100.00
28665;BME280;15850;47.524;7.814;2023-09-18T09:35:20;97115.47;;;16.63;100.00
28665;BME280;15850;47.524;7.814;2023-09-18T09:37:46;97241.94;;;17.31;100.00
28665;BME280;15850;47.524;7.814;2023-09-18T09:40:12;97438.53;;;18.26;100.00
28665;BME280;15850;47.524;7.814;2023-09-18T09:42:39;97469.97;;;18.11;100.00
28665;BME280;15850;47.524;7.814;2023-09-18T09:45:10;97412.47;;;17.52;100.00
28665;BME280;15850;47.524;7.814;2023-09-18T09:47:36;97474.31;;;18.01;100.00
28665;BME280;15850;47.524;7.814;2023-09-18T09:50:08;97475.47;;;17.86;100.00
28665;BME280;15850;47.524;7.814;2023-09-18T09:52:35;97478.63;;;18.02;100.00
28665;BME280;15850;47.524;7.814;2023-09-18T09:55:01;97295.34;;;17.19;100.00
28665;BME280;15850;47.524;7.814;2023-09-18T09:57:27;97020.38;;;15.72;100.00
28665;BME280;15850;47.524;7.814;2023-09-18T10:00:03;97297.34;;;17.44;100.00
28665;BME280;15850;47.524;7.814;2023-09-18T10:02:30;97442.44;;;18.47;100.00
28665;BME280;15850;47.524;7.814;2023-09-18T10:04:57;97430.63;;;18.53;100.00
28665;BME280;15850;47.524;7.814;2023-09-18T10:07:22;97193.63;;;17.05;100.00
28665;BME280;15850;47.524;7.814;2023-09-18T10:09:49;97335.88;;;18.12;100.00
28665;BME280;15850;47.524;7.814;2023-09-18T10:12:17;97311.13;;;17.79;100.00
28665;BME280;15850;47.524;7.814;2023-09-18T10:14:46;97317.03;;;17.99;100.00
28665;BME280;15850;47.524;7.814;2023-09-18T10:17:17;97353.13;;;18.55;100.00
28665;BME280;15850;47.524;7.814;2023-09-18T10:19:45;97337.78;;;18.47;100.00
28665;BME280;15850;47.524;7.814;2023-09-18T10:22:20;97254.41;;;18.32;100.00
28665;BME280;15850;47.524;7.814;2023-09-18T10:24:53;97247.41;;;18.10;100.00
28665;BME280;15850;47.524;7.814;2023-09-18T10:27:20;97294.97;;;18.14;100.00
28665;BME280;15850;47.524;7.814;2023-09-18T10:29:49;97324.47;;;18.10;100.00
28665;BME280;15850;47.524;7.814;2023-09-18T10:32:15;97342.19;;;17.87;100.00
28665;BME280;15850;47.524;7.814;2023-09-18T10:34:43;97254.03;;;16.76;100.00
28665;BME280;15850;47.524;7.814;2023-09-18T10:37:10;97388.97;;;17.94;100.00
28665;BME280;15850;47.524;7.814;2023-09-18T10:39:38;97422.00;;;18.19;100.00
28665;BME280;15850;47.524;7.814;2023-09-18T10:42:07;97440.09;;;18.45;100.00
28665;BME280;15850;47.524;7.814;2023-09-18T10:44:33;97411.72;;;18.63;100.00
28665;BME280;15850;47.524;7.814;2023-09-18T10:47:00;97399.13;;;18.69;100.00
28665;BME280;15850;47.524;7.814;2023-09-18T10:49:27;97423.34;;;19.31;100.00
28665;BME280;15850;47.524;7.814;2023-09-18T10:51:54;97383.84;;;19.48;100.00
28665;BME280;15850;47.524;7.814;2023-09-18T10:54:21;97386.06;;;19.75;100.00
28665;BME280;15850;47.524;7.814;2023-09-18T10:56:48;97342.59;;;19.31;100.00
28665;BME280;15850;47.524;7.814;2023-09-18T10:59:15;97323.00;;;19.11;100.00
28665;BME280;15850;47.524;7.814;2023-09-18T11:01:42;97380.56;;;19.75;100.00
28665;BME280;15850;47.524;7.814;2023-09-18T11:04:08;97400.16;;;19.91;100.00
28665;BME280;15850;47.524;7.814;2023-09-18T11:07:00;97401.22;;;20.08;100.00
28665;BME280;15850;47.524;7.814;2023-09-18T11:09:28;97410.34;;;20.02;100.00
28665;BME280;15850;47.524;7.814;2023-09-18T11:11:56;97438.81;;;19.91;100.00
28665;BME280;15850;47.524;7.814;2023-09-18T11:14:41;97437.03;;;20.19;100.00
28665;BME280;15850;47.524;7.814;2023-09-18T11:17:06;97415.50;;;20.45;100.00
28665;BME280;15850;47.524;7.814;2023-09-18T11:20:01;97419.06;;;20.41;100.00
28665;BME280;15850;47.524;7.814;2023-09-18T11:22:27;97378.88;;;20.37;100.00
28665;BME280;15850;47.524;7.814;2023-09-18T11:24:52;97411.91;;;20.93;100.00
28665;BME280;15850;47.524;7.814;2023-09-18T11:27:24;97398.28;;;20.71;100.00
28665;BME280;15850;47.524;7.814;2023-09-18T11:29:52;97390.94;;;20.92;100.00
28665;BME280;15850;47.524;7.814;2023-09-18T11:32:37;97368.28;;;21.04;100.00
28665;BME280;15850;47.524;7.814;2023-09-18T11:35:06;97398.31;;;21.40;100.00
28665;BME280;15850;47.524;7.814;2023-09-18T11:37:32;97389.38;;;21.55;100.00
28665;BME280;15850;47.524;7.814;2023-09-18T11:39:57;97381.44;;;21.85;100.00
28665;BME280;15850;47.524;7.814;2023-09-18T11:42:23;97321.25;;;21.89;100.00
28665;BME280;15850;47.524;7.814;2023-09-18T11:44:49;97366.47;;;22.52;100.00
28665;BME280;15850;47.524;7.814;2023-09-18T11:47:19;97399.16;;;22.61;100.00
28665;BME280;15850;47.524;7.814;2023-09-18T11:49:50;97385.41;;;22.78;100.00
28665;BME280;15850;47.524;7.814;2023-09-18T11:52:16;97365.56;;;22.79;100.00
28665;BME280;15850;47.524;7.814;2023-09-18T11:54:43;97386.50;;;23.04;100.00
28665;BME280;15850;47.524;7.814;2023-09-18T11:57:08;97319.75;;;22.51;100.00
28665;BME280;15850;47.524;7.814;2023-09-18T11:59:38;97372.00;;;22.52;100.00
28665;BME280;15850;47.524;7.814;2023-09-18T12:02:04;97374.66;;;22.60;100.00
28665;BME280;15850;47.524;7.814;2023-09-18T12:04:31;97371.59;;;22.31;100.00
28665;BME280;15850;47.524;7.814;2023-09-18T12:06:57;97241.03;;;21.58;100.00
28665;BME280;15850;47.524;7.814;2023-09-18T12:09:22;97369.81;;;22.64;100.00
28665;BME280;15850;47.524;7.814;2023-09-18T12:11:48;97295.00;;;22.20;100.00
28665;BME280;15850;47.524;7.814;2023-09-18T12:14:13;97375.47;;;23.00;100.00
28665;BME280;15850;47.524;7.814;2023-09-18T12:16:39;97368.28;;;22.83;100.00
28665;BME280;15850;47.524;7.814;2023-09-18T12:19:05;97374.69;;;23.19;100.00
28665;BME280;15850;47.524;7.814;2023-09-18T12:21:32;97328.09;;;23.11;84.60
28665;BME280;15850;47.524;7.814;2023-09-18T12:23:58;97380.09;;;23.27;88.46
28665;BME280;15850;47.524;7.814;2023-09-18T12:26:23;97302.78;;;22.89;79.00
28665;BME280;15850;47.524;7.814;2023-09-18T12:28:49;97269.28;;;23.00;81.48
28665;BME280;15850;47.524;7.814;2023-09-18T12:31:15;97362.25;;;23.80;76.10
28665;BME280;15850;47.524;7.814;2023-09-18T12:33:42;97355.06;;;23.99;90.07
28665;BME280;15850;47.524;7.814;2023-09-18T12:36:08;97277.75;;;22.72;87.96
28665;BME280;15850;47.524;7.814;2023-09-18T12:38:35;97361.75;;;23.49;89.80
28665;BME280;15850;47.524;7.814;2023-09-18T12:41:01;97343.19;;;23.46;90.18
28665;BME280;15850;47.524;7.814;2023-09-18T12:43:27;97342.22;;;23.73;78.14
28665;BME280;15850;47.524;7.814;2023-09-18T12:45:53;97344.50;;;23.41;87.51
28665;BME280;15850;47.524;7.814;2023-09-18T12:48:19;97350.03;;;23.05;86.88